createdAt,value
2018-01-05T00:01:06.789Z,90.02
2018-01-05T00:03:34.293Z,90.03
2018-01-05T00:06:01.798Z,90.24
2018-01-05T00:08:29.320Z,90.09
2018-01-05T00:10:56.829Z,90.33
2018-01-05T00:13:24.362Z,90.32
2018-01-05T00:15:51.900Z,89.94
2018-01-05T00:18:19.436Z,90.59
2018-01-05T00:20:46.967Z,90.45
2018-01-05T00:23:14.478Z,90.91
2018-01-05T00:25:41.996Z,91.07
2018-01-05T00:28:09.503Z,91.14
2018-01-05T00:30:37.062Z,91.51
2018-01-05T00:33:04.591Z,91.11
2018-01-05T00:35:32.101Z,91.17
2018-01-05T00:37:59.610Z,91.52
2018-01-05T00:40:27.116Z,91.53
2018-01-05T00:42:54.624Z,91.50
2018-01-05T00:45:22.137Z,91.18
2018-01-05T00:47:49.656Z,92.04
2018-01-05T00:50:17.166Z,91.96
2018-01-05T00:52:44.727Z,91.79
2018-01-05T00:55:12.199Z,91.71
2018-01-05T00:57:39.731Z,91.70
2018-01-05T01:00:07.243Z,91.40
2018-01-05T01:02:34.749Z,91.64
2018-01-05T01:05:02.272Z,91.16
2018-01-05T01:07:29.795Z,91.39
2018-01-05T01:09:57.299Z,90.99
2018-01-05T01:12:24.813Z,91.13
2018-01-05T01:14:52.329Z,91.09
2018-01-05T01:17:19.839Z,90.90
2018-01-05T01:19:47.354Z,90.52
2018-01-05T01:22:14.885Z,90.52
2018-01-05T01:24:42.397Z,90.39
2018-01-05T01:27:09.901Z,90.29
2018-01-05T01:29:37.409Z,90.46
2018-01-05T01:32:04.929Z,90.21
2018-01-05T01:34:32.435Z,89.95
2018-01-05T01:36:59.942Z,89.93
2018-01-05T01:39:27.465Z,89.95
2018-01-05T01:41:54.973Z,89.93
2018-01-05T01:44:22.485Z,89.77
2018-01-05T01:46:49.994Z,89.80
2018-01-05T01:49:17.510Z,89.57
2018-01-05T01:51:45.031Z,89.46
2018-01-05T01:54:12.541Z,89.27
2018-01-05T01:56:40.057Z,89.33
2018-01-05T01:59:07.564Z,89.37
2018-01-05T02:01:35.066Z,89.27
2018-01-05T02:04:02.577Z,89.06
2018-01-05T02:06:30.093Z,89.00
2018-01-05T02:08:57.593Z,88.96
2018-01-05T02:11:25.102Z,88.83
2018-01-05T02:13:52.608Z,88.96
2018-01-05T02:16:20.113Z,89.07
2018-01-05T02:18:47.624Z,89.54
2018-01-05T02:21:15.139Z,89.68
2018-01-05T02:23:42.649Z,89.85
2018-01-05T02:26:10.166Z,89.97
2018-01-05T02:28:37.670Z,89.80
2018-01-05T02:31:05.182Z,89.46
2018-01-05T02:33:32.685Z,89.14
2018-01-05T02:36:00.185Z,88.93
2018-01-05T02:38:27.699Z,88.74
2018-01-05T02:40:55.209Z,88.49
2018-01-05T02:43:22.722Z,87.76
2018-01-05T02:45:50.222Z,86.94
2018-01-05T02:48:17.734Z,86.38
2018-01-05T02:50:45.271Z,86.45
2018-01-05T02:53:12.799Z,85.91
2018-01-05T02:55:40.310Z,85.89
2018-01-05T02:58:07.818Z,85.83
2018-01-05T03:00:35.324Z,85.10
2018-01-05T03:03:02.835Z,84.52
2018-01-05T03:05:30.346Z,84.11
2018-01-05T03:07:57.849Z,84.04
2018-01-05T03:10:25.352Z,83.45
2018-01-05T03:12:52.853Z,82.81
2018-01-05T03:15:20.365Z,82.22
2018-01-05T03:17:47.873Z,80.76
2018-01-05T03:20:15.392Z,81.04
2018-01-05T03:22:42.902Z,80.69
2018-01-05T03:25:10.406Z,79.77
2018-01-05T03:27:37.906Z,80.47
2018-01-05T03:30:05.434Z,79.17
2018-01-05T03:32:32.941Z,79.38
2018-01-05T03:35:01.300Z,79.12
2018-01-05T03:37:28.817Z,78.20
2018-01-05T03:39:56.327Z,77.71
2018-01-05T03:42:23.843Z,77.22
2018-01-05T03:44:51.355Z,77.13
2018-01-05T03:47:18.866Z,76.58
2018-01-05T03:49:46.376Z,76.26
2018-01-05T03:52:13.887Z,76.41
2018-01-05T03:54:41.390Z,75.31
2018-01-05T03:57:08.898Z,74.54
2018-01-05T03:59:36.409Z,74.92
2018-01-05T04:02:03.920Z,74.00
2018-01-05T04:04:31.423Z,75.41
2018-01-05T04:06:58.925Z,74.42
2018-01-05T04:09:26.430Z,74.62
2018-01-05T04:11:53.936Z,74.96
2018-01-05T04:14:21.441Z,72.60
2018-01-05T04:16:48.946Z,71.96
2018-01-05T04:19:16.459Z,71.55
2018-01-05T04:21:43.965Z,71.75
2018-01-05T04:24:11.496Z,70.78
2018-01-05T04:26:39.005Z,70.74
2018-01-05T04:29:06.514Z,70.08
2018-01-05T04:31:34.026Z,69.76
2018-01-05T04:34:01.548Z,70.06
2018-01-05T04:36:29.054Z,71.30
2018-01-05T04:38:56.561Z,71.14
2018-01-05T04:41:24.061Z,72.43
2018-01-05T04:43:51.565Z,71.83
2018-01-05T04:46:19.077Z,70.96
2018-01-05T04:48:46.584Z,70.40
2018-01-05T04:51:14.093Z,71.34
2018-01-05T04:53:41.601Z,72.02
2018-01-05T04:56:09.114Z,71.22
2018-01-05T04:58:36.618Z,70.59
2018-01-05T05:01:04.134Z,71.00
2018-01-05T05:03:31.635Z,70.87
2018-01-05T05:05:59.132Z,71.29
2018-01-05T05:08:26.634Z,72.35
2018-01-05T05:10:54.147Z,72.11
2018-01-05T05:13:21.704Z,71.42
2018-01-05T05:15:49.192Z,71.47
2018-01-05T05:18:16.689Z,72.78
2018-01-05T05:20:44.203Z,71.73
2018-01-05T05:23:11.704Z,71.58
2018-01-05T05:25:39.201Z,71.75
2018-01-05T05:28:06.705Z,72.23
2018-01-05T05:30:34.218Z,72.16
2018-01-05T05:33:01.721Z,72.67
2018-01-05T05:35:29.229Z,72.78
2018-01-05T05:37:56.729Z,71.62
2018-01-05T05:40:24.233Z,72.49
2018-01-05T05:42:51.737Z,72.27
2018-01-05T05:45:19.231Z,72.47
2018-01-05T05:47:46.734Z,72.16
2018-01-05T05:50:14.246Z,72.71
2018-01-05T05:52:41.766Z,72.79
2018-01-05T05:55:09.280Z,73.38
2018-01-05T05:57:36.789Z,72.90
2018-01-05T06:00:04.302Z,72.71
2018-01-05T06:02:31.800Z,71.85
2018-01-05T06:04:59.306Z,71.59
2018-01-05T06:07:26.804Z,73.09
2018-01-05T06:09:54.310Z,73.16
2018-01-05T06:12:21.815Z,72.49
2018-01-05T06:14:49.328Z,72.96
2018-01-05T06:17:16.841Z,73.46
2018-01-05T06:19:44.344Z,72.87
2018-01-05T06:22:11.849Z,73.37
2018-01-05T06:24:39.357Z,73.63
2018-01-05T06:27:06.877Z,74.33
2018-01-05T06:29:34.379Z,73.12
2018-01-05T06:32:01.906Z,73.59
2018-01-05T06:34:29.427Z,74.00
2018-01-05T06:36:56.924Z,74.16
2018-01-05T06:39:24.440Z,74.88
2018-01-05T06:41:51.950Z,74.62
2018-01-05T06:44:19.454Z,74.65
2018-01-05T06:46:46.965Z,75.16
2018-01-05T06:49:14.469Z,75.19
2018-01-05T06:51:41.988Z,74.95
2018-01-05T06:54:09.497Z,75.08
2018-01-05T06:56:36.998Z,75.03
2018-01-05T06:59:04.505Z,75.10
2018-01-05T07:01:32.069Z,75.22
2018-01-05T07:03:59.576Z,75.24
2018-01-05T07:06:27.085Z,75.65
2018-01-05T07:08:54.599Z,75.10
2018-01-05T07:11:22.109Z,75.83
2018-01-05T07:13:49.617Z,75.76
2018-01-05T07:16:17.125Z,75.12
2018-01-05T07:18:44.634Z,74.82
2018-01-05T07:21:12.141Z,75.00
2018-01-05T07:23:39.649Z,74.66
2018-01-05T07:26:07.161Z,74.40
2018-01-05T07:28:34.664Z,74.64
2018-01-05T07:31:02.169Z,74.10
2018-01-05T07:33:29.677Z,74.58
2018-01-05T07:35:57.197Z,74.40
2018-01-05T07:38:24.709Z,74.60
2018-01-05T07:40:52.216Z,74.71
2018-01-05T07:43:19.726Z,74.90
2018-01-05T07:45:47.294Z,74.27
2018-01-05T07:48:14.797Z,74.24
2018-01-05T07:50:42.302Z,74.34
2018-01-05T07:53:09.875Z,74.31
2018-01-05T07:55:37.410Z,73.49
2018-01-05T07:58:04.913Z,74.06
2018-01-05T08:00:32.430Z,73.98
2018-01-05T08:02:59.932Z,73.19
2018-01-05T08:05:27.450Z,73.19
2018-01-05T08:07:54.973Z,72.91
2018-01-05T08:10:22.485Z,72.44
2018-01-05T08:12:50.004Z,72.66
2018-01-05T08:15:17.528Z,72.60
2018-01-05T08:17:45.052Z,72.17
2018-01-05T08:20:12.555Z,72.44
2018-01-05T08:22:40.065Z,71.32
2018-01-05T08:25:07.582Z,72.78
2018-01-05T08:27:35.089Z,72.57
2018-01-05T08:30:02.604Z,71.86
2018-01-05T08:32:30.109Z,71.91
2018-01-05T08:34:57.622Z,71.12
2018-01-05T08:37:25.128Z,72.31
2018-01-05T08:39:52.639Z,72.06
2018-01-05T08:42:20.150Z,72.05
2018-01-05T08:44:47.657Z,71.51
2018-01-05T08:47:15.156Z,71.87
2018-01-05T08:49:42.672Z,71.62
2018-01-05T08:52:10.182Z,71.26
2018-01-05T08:54:37.704Z,70.13
2018-01-05T08:57:05.229Z,70.65
2018-01-05T08:59:32.755Z,70.80
2018-01-05T09:02:00.277Z,70.52
2018-01-05T09:04:27.789Z,70.71
2018-01-05T09:06:55.311Z,71.04
2018-01-05T09:09:22.823Z,71.05
2018-01-05T09:11:50.340Z,70.41
2018-01-05T09:14:17.857Z,70.79
2018-01-05T09:16:45.360Z,70.40
2018-01-05T09:19:12.870Z,69.97
2018-01-05T09:21:40.379Z,71.07
2018-01-05T09:24:07.885Z,71.81
2018-01-05T09:26:35.423Z,71.17
2018-01-05T09:29:02.941Z,70.30
2018-01-05T09:31:30.459Z,70.36
2018-01-05T09:33:57.975Z,70.75
2018-01-05T09:36:25.490Z,71.56
2018-01-05T09:38:53.009Z,70.50
2018-01-05T09:41:20.654Z,70.62
2018-01-05T09:43:48.153Z,70.39
2018-01-05T09:46:15.676Z,70.19
2018-01-05T09:48:43.199Z,70.81
2018-01-05T09:51:10.720Z,70.21
2018-01-05T09:53:38.239Z,70.99
2018-01-05T09:56:05.911Z,70.35
2018-01-05T09:58:33.425Z,69.79
2018-01-05T10:01:00.985Z,70.48
2018-01-05T10:03:28.493Z,69.91
2018-01-05T10:05:56.016Z,70.74
2018-01-05T10:08:23.543Z,70.55
2018-01-05T10:10:51.156Z,69.91
2018-01-05T10:13:18.698Z,70.24
2018-01-05T10:15:46.249Z,70.63
2018-01-05T10:18:13.758Z,70.60
2018-01-05T10:20:41.260Z,70.10
2018-01-05T10:23:08.764Z,71.17
2018-01-05T10:25:36.277Z,70.49
2018-01-05T10:28:03.792Z,71.46
2018-01-05T10:30:31.309Z,70.65
2018-01-05T10:32:58.821Z,70.75
2018-01-05T10:35:26.335Z,70.69
2018-01-05T10:37:53.858Z,71.15
2018-01-05T10:40:21.371Z,72.27
2018-01-05T10:42:48.894Z,71.53
2018-01-05T10:45:16.407Z,70.46
2018-01-05T10:47:43.921Z,70.68
2018-01-05T10:50:11.421Z,70.24
2018-01-05T10:52:38.930Z,70.87
2018-01-05T10:55:06.448Z,70.41
2018-01-05T10:57:33.961Z,70.08
2018-01-05T11:00:01.514Z,69.55
2018-01-05T11:02:29.037Z,69.65
2018-01-05T11:04:56.560Z,69.94
2018-01-05T11:07:24.068Z,69.66
2018-01-05T11:09:51.589Z,69.42
2018-01-05T11:12:19.102Z,69.51
2018-01-05T11:14:46.622Z,71.34
2018-01-05T11:17:14.134Z,69.60
2018-01-05T11:19:41.637Z,70.00
2018-01-05T11:22:09.148Z,69.81
2018-01-05T11:24:36.648Z,69.52
2018-01-05T11:27:04.153Z,69.55
2018-01-05T11:29:31.725Z,69.42
2018-01-05T11:31:59.242Z,70.11
2018-01-05T11:34:26.756Z,69.41
2018-01-05T11:36:54.296Z,69.17
2018-01-05T11:39:21.809Z,69.90
2018-01-05T11:41:49.360Z,70.25
2018-01-05T11:44:16.880Z,70.74
2018-01-05T11:46:44.397Z,69.90
2018-01-05T11:49:11.916Z,70.12
2018-01-05T11:51:39.433Z,70.10
2018-01-05T11:54:06.947Z,72.17
2018-01-05T11:56:34.456Z,70.89
2018-01-05T11:59:01.971Z,71.29
2018-01-05T12:01:29.521Z,72.92
2018-01-05T12:03:57.089Z,73.37
2018-01-05T12:06:24.727Z,74.22
2018-01-05T12:08:52.236Z,75.16
2018-01-05T12:11:19.746Z,76.61
2018-01-05T12:13:47.261Z,77.81
2018-01-05T12:16:14.777Z,77.56
2018-01-05T12:18:42.296Z,77.32
2018-01-05T12:21:09.802Z,77.36
2018-01-05T12:23:37.306Z,78.08
2018-01-05T12:26:04.817Z,78.34
2018-01-05T12:28:32.320Z,78.24
2018-01-05T12:30:59.852Z,78.69
2018-01-05T12:33:27.471Z,78.36
2018-01-05T12:35:54.982Z,78.47
2018-01-05T12:38:22.497Z,78.35
2018-01-05T12:40:50.015Z,77.90
2018-01-05T12:43:17.544Z,77.31
2018-01-05T12:45:45.049Z,77.29
2018-01-05T12:48:12.560Z,77.08
2018-01-05T12:50:40.097Z,77.73
2018-01-05T12:53:07.641Z,78.12
2018-01-05T12:55:35.155Z,78.74
2018-01-05T12:58:02.674Z,78.59
2018-01-05T13:00:30.176Z,78.37
2018-01-05T13:02:57.777Z,78.53
2018-01-05T13:05:25.288Z,78.54
2018-01-05T13:07:52.885Z,78.15
2018-01-05T13:10:20.389Z,78.24
2018-01-05T13:12:47.940Z,78.19
2018-01-05T13:15:15.451Z,78.27
2018-01-05T13:17:43.152Z,78.13
2018-01-05T13:20:10.658Z,77.94
2018-01-05T13:22:38.162Z,78.09
2018-01-05T13:25:05.677Z,78.11
2018-01-05T13:27:33.188Z,77.29
2018-01-05T13:30:00.693Z,77.10
2018-01-05T13:32:28.292Z,76.36
2018-01-05T13:34:55.801Z,75.99
2018-01-05T13:37:23.500Z,76.29
2018-01-05T13:39:51.001Z,76.57
2018-01-05T13:42:18.503Z,76.76
2018-01-05T13:44:46.013Z,76.41
2018-01-05T13:47:13.515Z,76.74
2018-01-05T13:49:41.058Z,76.95
2018-01-05T13:52:08.567Z,76.54
2018-01-05T13:54:36.074Z,76.81
2018-01-05T13:57:03.584Z,77.02
2018-01-05T13:59:31.120Z,76.80
2018-01-05T14:01:58.631Z,76.00
2018-01-05T14:04:26.133Z,75.96
2018-01-05T14:06:53.646Z,75.78
2018-01-05T14:09:21.140Z,75.27
2018-01-05T14:11:48.649Z,74.85
2018-01-05T14:14:16.158Z,74.69
2018-01-05T14:16:43.670Z,73.74
2018-01-05T14:19:11.185Z,73.95
2018-01-05T14:21:38.691Z,73.87
2018-01-05T14:24:06.198Z,73.21
2018-01-05T14:26:33.706Z,73.44
2018-01-05T14:29:01.205Z,73.52
2018-01-05T14:31:28.712Z,73.61
2018-01-05T14:33:56.217Z,72.58
2018-01-05T14:36:23.714Z,73.30
2018-01-05T14:38:51.216Z,73.17
2018-01-05T14:41:18.723Z,73.29
2018-01-05T14:43:46.229Z,73.24
2018-01-05T14:46:13.729Z,73.10
2018-01-05T14:48:41.237Z,73.21
2018-01-05T14:51:08.746Z,72.78
2018-01-05T14:53:36.265Z,72.56
2018-01-05T14:56:03.773Z,73.24
2018-01-05T14:58:31.282Z,72.58
2018-01-05T15:00:58.800Z,73.07
2018-01-05T15:03:26.302Z,73.30
2018-01-05T15:05:53.818Z,73.85
2018-01-05T15:08:21.345Z,73.63
2018-01-05T15:10:48.857Z,73.74
2018-01-05T15:13:16.361Z,74.09
2018-01-05T15:15:43.870Z,74.45
2018-01-05T15:18:11.378Z,74.73
2018-01-05T15:20:38.888Z,74.74
2018-01-05T15:23:06.380Z,74.44
2018-01-05T15:25:33.886Z,75.26
2018-01-05T15:28:01.390Z,75.22
2018-01-05T15:30:28.889Z,75.02
2018-01-05T15:32:56.394Z,75.12
2018-01-05T15:35:23.902Z,75.58
2018-01-05T15:37:51.414Z,75.53
2018-01-05T15:40:18.925Z,75.62
2018-01-05T15:42:46.436Z,75.67
2018-01-05T15:45:13.933Z,75.84
2018-01-05T15:47:41.438Z,76.08
2018-01-05T15:50:08.966Z,76.08
2018-01-05T15:52:36.477Z,75.86
2018-01-05T15:55:03.997Z,75.78
2018-01-05T15:57:31.502Z,76.25
2018-01-05T15:59:59.005Z,76.12
2018-01-05T16:02:26.512Z,76.29
2018-01-05T16:04:54.029Z,76.58
2018-01-05T16:07:21.569Z,76.59
2018-01-05T16:09:49.069Z,76.95
2018-01-05T16:12:16.573Z,77.08
2018-01-05T16:14:44.085Z,77.14
2018-01-05T16:17:11.597Z,77.58
2018-01-05T16:19:39.098Z,77.70
2018-01-05T16:22:06.592Z,77.84
2018-01-05T16:24:34.096Z,78.72
2018-01-05T16:27:01.650Z,78.50
2018-01-05T16:29:29.157Z,78.19
2018-01-05T16:31:56.667Z,78.36
2018-01-05T16:34:24.177Z,78.39
2018-01-05T16:36:51.677Z,78.55
2018-01-05T16:39:19.180Z,78.60
2018-01-05T16:41:46.693Z,78.65
2018-01-05T16:44:15.093Z,78.63
2018-01-05T16:46:42.592Z,78.57
2018-01-05T16:49:10.094Z,78.76
2018-01-05T16:51:37.625Z,78.67
2018-01-05T16:54:05.133Z,79.20
2018-01-05T16:56:32.629Z,79.08
2018-01-05T16:59:00.134Z,79.07
2018-01-05T17:01:27.641Z,79.38
2018-01-05T17:03:55.145Z,79.26
2018-01-05T17:06:22.657Z,79.29
2018-01-05T17:08:50.166Z,79.45
2018-01-05T17:11:17.752Z,79.50
2018-01-05T17:13:45.266Z,79.51
2018-01-05T17:16:12.775Z,79.48
2018-01-05T17:18:40.280Z,79.83
2018-01-05T17:21:07.794Z,79.75
2018-01-05T17:23:35.301Z,79.65
2018-01-05T17:26:02.806Z,79.62
2018-01-05T17:28:30.358Z,79.67
2018-01-05T17:30:57.863Z,79.69
2018-01-05T17:33:25.379Z,80.01
2018-01-05T17:35:52.948Z,80.02
2018-01-05T17:38:20.458Z,79.73
2018-01-05T17:40:48.022Z,79.61
2018-01-05T17:43:15.525Z,79.59
2018-01-05T17:45:43.073Z,79.53
2018-01-05T17:48:10.578Z,79.76
2018-01-05T17:50:38.103Z,79.93
2018-01-05T17:53:05.624Z,79.91
2018-01-05T17:55:33.198Z,79.73
2018-01-05T17:58:01.570Z,79.80
2018-01-05T18:00:29.110Z,79.46
2018-01-05T18:02:56.661Z,79.73
2018-01-05T18:05:24.180Z,79.73
2018-01-05T18:07:51.742Z,79.81
2018-01-05T18:10:19.266Z,79.79
2018-01-05T18:12:46.765Z,80.04
2018-01-05T18:15:14.292Z,80.05
2018-01-05T18:17:41.801Z,80.08
2018-01-05T18:20:09.322Z,80.33
2018-01-05T18:22:36.851Z,80.54
2018-01-05T18:25:04.403Z,80.59
2018-01-05T18:27:31.901Z,80.64
2018-01-05T18:29:59.405Z,81.31
2018-01-05T18:32:26.930Z,80.82
2018-01-05T18:34:54.453Z,80.83
2018-01-05T18:37:21.970Z,80.80
2018-01-05T18:39:49.493Z,81.09
2018-01-05T18:42:17.025Z,80.72
2018-01-05T18:44:44.533Z,81.12
2018-01-05T18:47:12.032Z,81.33
2018-01-05T18:49:39.542Z,81.42
2018-01-05T18:52:07.082Z,81.30
2018-01-05T18:54:34.589Z,81.48
2018-01-05T18:57:02.095Z,81.68
2018-01-05T18:59:29.601Z,81.83
2018-01-05T19:01:57.141Z,81.81
2018-01-05T19:04:25.485Z,81.74
2018-01-05T19:06:53.058Z,81.67
2018-01-05T19:09:20.595Z,82.11
2018-01-05T19:11:48.128Z,81.96
2018-01-05T19:14:15.633Z,82.39
2018-01-05T19:16:43.180Z,82.52
2018-01-05T19:19:10.727Z,82.27
2018-01-05T19:21:38.259Z,82.46
2018-01-05T19:24:05.779Z,82.45
2018-01-05T19:26:33.381Z,82.43
2018-01-05T19:29:00.897Z,82.66
2018-01-05T19:31:28.452Z,82.78
2018-01-05T19:33:55.978Z,82.83
2018-01-05T19:36:23.522Z,82.95
2018-01-05T19:38:51.098Z,83.13
2018-01-05T19:41:18.620Z,83.16
2018-01-05T19:43:46.165Z,83.25
2018-01-05T19:46:13.688Z,83.31
2018-01-05T19:48:41.216Z,83.48
2018-01-05T19:51:08.731Z,83.76
2018-01-05T19:53:36.346Z,83.61
2018-01-05T19:56:04.016Z,83.86
2018-01-05T19:58:31.558Z,84.07
2018-01-05T20:00:59.133Z,84.09
2018-01-05T20:03:26.633Z,84.07
2018-01-05T20:05:54.160Z,84.46
2018-01-05T20:08:21.681Z,84.60
2018-01-05T20:10:49.185Z,84.60
2018-01-05T20:13:16.713Z,84.89
2018-01-05T20:15:44.245Z,84.74
2018-01-05T20:18:11.762Z,84.55
2018-01-05T20:20:39.401Z,84.90
2018-01-05T20:23:06.899Z,84.53
2018-01-05T20:25:34.490Z,84.43
2018-01-05T20:28:02.001Z,84.36
2018-01-05T20:30:29.517Z,84.38
2018-01-05T20:32:57.036Z,84.28
2018-01-05T20:35:24.623Z,84.37
2018-01-05T20:37:52.197Z,84.48
2018-01-05T20:40:19.737Z,84.78
2018-01-05T20:42:47.262Z,84.39
2018-01-05T20:45:14.813Z,84.43
2018-01-05T20:47:42.317Z,84.54
2018-01-05T20:50:09.830Z,84.46
2018-01-05T20:52:37.366Z,84.49
2018-01-05T20:55:04.895Z,84.48
2018-01-05T20:57:32.426Z,84.80
2018-01-05T20:59:59.989Z,84.85
2018-01-05T21:02:27.530Z,85.02
2018-01-05T21:04:55.061Z,84.92
2018-01-05T21:07:22.589Z,85.05
2018-01-05T21:09:50.104Z,85.11
2018-01-05T21:12:17.612Z,84.89
2018-01-05T21:14:45.125Z,84.85
2018-01-05T21:17:12.669Z,85.24
2018-01-05T21:19:40.234Z,85.00
2018-01-05T21:22:07.781Z,84.89
2018-01-05T21:24:35.313Z,85.15
2018-01-05T21:27:02.868Z,85.23
2018-01-05T21:29:30.387Z,85.44
2018-01-05T21:31:57.892Z,85.84
2018-01-05T21:34:25.401Z,85.40
2018-01-05T21:36:52.909Z,85.43
2018-01-05T21:39:20.451Z,85.32
2018-01-05T21:41:48.028Z,85.52
2018-01-05T21:44:15.599Z,85.99
2018-01-05T21:46:43.115Z,85.61
2018-01-05T21:49:10.625Z,85.75
2018-01-05T21:51:38.133Z,85.67
2018-01-05T21:54:05.649Z,85.71
2018-01-05T21:56:33.156Z,85.51
2018-01-05T21:59:00.660Z,85.46
2018-01-05T22:01:28.169Z,85.90
2018-01-05T22:03:55.686Z,85.96
2018-01-05T22:06:23.200Z,86.16
2018-01-05T22:08:50.706Z,85.99
2018-01-05T22:11:18.219Z,86.17
2018-01-05T22:13:45.729Z,86.17
2018-01-05T22:16:13.250Z,86.16
2018-01-05T22:18:40.758Z,86.13
2018-01-05T22:21:08.278Z,86.18
2018-01-05T22:23:35.785Z,86.33
2018-01-05T22:26:03.310Z,86.26
2018-01-05T22:28:30.830Z,86.18
2018-01-05T22:30:58.331Z,86.37
2018-01-05T22:33:25.838Z,86.61
2018-01-05T22:35:53.344Z,86.59
2018-01-05T22:38:20.853Z,86.13
2018-01-05T22:40:48.362Z,86.30
2018-01-05T22:43:15.866Z,86.59
2018-01-05T22:45:43.376Z,86.38
2018-01-05T22:48:10.889Z,86.37
2018-01-05T22:50:38.410Z,86.01
2018-01-05T22:53:05.924Z,86.08
2018-01-05T22:55:33.433Z,86.08
2018-01-05T22:58:00.950Z,86.09
2018-01-05T23:00:28.460Z,86.11
2018-01-05T23:02:55.968Z,86.26
2018-01-05T23:05:23.475Z,85.96
2018-01-05T23:07:50.980Z,85.75
2018-01-05T23:10:18.485Z,85.93
2018-01-05T23:12:46.006Z,85.87
2018-01-05T23:15:13.521Z,85.98
2018-01-05T23:17:41.020Z,86.39
2018-01-05T23:20:08.530Z,86.05
2018-01-05T23:22:36.061Z,86.67
2018-01-05T23:25:03.570Z,86.42
2018-01-05T23:27:31.081Z,86.81
2018-01-05T23:29:58.614Z,86.97
2018-01-05T23:32:26.129Z,87.06
2018-01-05T23:34:53.645Z,87.19
2018-01-05T23:37:21.161Z,86.83
2018-01-05T23:39:48.676Z,86.96
2018-01-05T23:42:16.178Z,86.86
2018-01-05T23:44:43.689Z,87.05
2018-01-05T23:47:11.202Z,87.14
2018-01-05T23:49:38.713Z,87.08
2018-01-05T23:52:06.218Z,87.58
2018-01-05T23:54:33.741Z,88.25
2018-01-05T23:57:01.247Z,87.93
2018-01-05T23:59:28.801Z,87.92
